Time;durP1;ratioP1;P1;durP2;ratioP2;P2;SDS_P1;SDS_P2;PMS_P1;PMS_P2;Temp;Humidity;BMP_temperature;BMP_pressure;BME280_temperature;BME280_humidity;BME280_pressure;Samples;Min_cycle;Max_cycle;Signal;HPM_P1;HPM_P2
2021/08/04 00:02:04;;;;;;;5.47;2.10;;;;;;;;;;4913435;29;20063;-76
2021/08/04 00:04:29;;;;;;;2.67;1.73;;;;;;;;;;4911884;29;20071;-76
2021/08/04 00:06:54;;;;;;;3.03;1.90;;;;;;;;;;4914742;29;20043;-72
2021/08/04 00:09:20;;;;;;;1.85;1.70;;;;;;;;;;4915618;29;20530;-73
2021/08/04 00:11:45;;;;;;;4.88;1.92;;;;;;;;;;4899728;29;20242;-73
2021/08/04 00:14:11;;;;;;;3.30;1.83;;;;;;;;;;4915207;29;20040;-71
2021/08/04 00:16:37;;;;;;;2.33;1.85;;;;;;;;;;4915284;29;20559;-72
2021/08/04 00:19:03;;;;;;;3.10;2.45;;;;;;;;;;4916444;29;20024;-73
2021/08/04 00:21:29;;;;;;;3.88;2.00;;;;;;;;;;4916458;29;20075;-73
2021/08/04 00:23:55;;;;;;;4.45;2.00;;;;;;;;;;4915185;29;20055;-74
2021/08/04 00:26:20;;;;;;;4.78;2.15;;;;;;;;;;4916182;29;20495;-72
2021/08/04 00:28:46;;;;;;;7.35;2.33;;;;;;;;;;4916395;29;20039;-73
2021/08/04 00:31:11;;;;;;;4.22;2.03;;;;;;;;;;4914963;29;20472;-73
2021/08/04 00:33:37;;;;;;;3.67;1.80;;;;;;;;;;4916361;29;20115;-72
2021/08/04 00:36:03;;;;;;;2.17;1.95;;;;;;;;;;4914958;29;20400;-72
2021/08/04 00:38:28;;;;;;;7.63;2.47;;;;;;;;;;4916112;29;20036;-72
2021/08/04 00:40:55;;;;;;;7.38;2.47;;;;;;;;;;4899194;29;20475;-72
2021/08/04 00:43:20;;;;;;;3.13;2.40;;;;;;;;;;4916010;29;20036;-73
2021/08/04 00:45:46;;;;;;;2.20;2.00;;;;;;;;;;4914747;29;20123;-73
2021/08/04 00:48:11;;;;;;;4.43;2.38;;;;;;;;;;4915743;29;20039;-73
2021/08/04 00:50:37;;;;;;;6.47;2.60;;;;;;;;;;4915921;29;20032;-73
2021/08/04 00:53:22;;;;;;;3.53;2.70;;;;;;;;;;4898774;29;20054;-73
2021/08/04 00:55:49;;;;;;;6.95;2.72;;;;;;;;;;4915769;29;20472;-72
2021/08/04 00:58:16;;;;;;;5.25;2.90;;;;;;;;;;4914401;29;20044;-77
2021/08/04 01:00:50;;;;;;;4.28;2.70;;;;;;;;;;4915787;29;20039;-77
2021/08/04 01:03:19;;;;;;;4.75;2.30;;;;;;;;;;4914504;29;20491;-77
2021/08/04 01:05:50;;;;;;;7.10;2.38;;;;;;;;;;4915602;29;20448;-73
2021/08/04 01:08:47;;;;;;;4.75;2.55;;;;;;;;;;4914174;29;20040;-73
2021/08/04 01:11:14;;;;;;;3.13;2.53;;;;;;;;;;4897349;29;20028;-73
2021/08/04 01:13:49;;;;;;;4.30;2.42;;;;;;;;;;4914313;29;20028;-73
2021/08/04 01:16:21;;;;;;;6.60;2.70;;;;;;;;;;4915403;29;20028;-73
2021/08/04 01:18:57;;;;;;;6.35;2.90;;;;;;;;;;4914074;29;20111;-74
2021/08/04 01:21:31;;;;;;;5.80;2.42;;;;;;;;;;4915172;29;20040;-74
2021/08/04 01:24:10;;;;;;;4.45;2.50;;;;;;;;;;4914255;29;20044;-74
2021/08/04 01:26:42;;;;;;;3.78;3.10;;;;;;;;;;4898671;29;20425;-73
2021/08/04 01:29:10;;;;;;;5.45;2.70;;;;;;;;;;4914031;29;20055;-73
2021/08/04 01:31:38;;;;;;;3.90;2.65;;;;;;;;;;4914000;29;20115;-73
2021/08/04 01:34:05;;;;;;;4.10;3.22;;;;;;;;;;4913900;29;20035;-72
2021/08/04 01:36:32;;;;;;;4.82;2.95;;;;;;;;;;4913510;29;20071;-74
2021/08/04 01:39:01;;;;;;;6.82;2.85;;;;;;;;;;4913699;29;20055;-72
2021/08/04 01:41:27;;;;;;;3.72;2.72;;;;;;;;;;4914843;29;20087;-73
2021/08/04 01:43:54;;;;;;;5.28;2.53;;;;;;;;;;4913771;29;20488;-74
2021/08/04 01:46:21;;;;;;;3.88;2.53;;;;;;;;;;4914825;29;20379;-74
2021/08/04 01:48:48;;;;;;;3.38;2.65;;;;;;;;;;4913805;29;20119;-74
2021/08/04 01:51:14;;;;;;;4.57;2.60;;;;;;;;;;4914761;29;20520;-74
2021/08/04 01:53:44;;;;;;;5.03;2.63;;;;;;;;;;4913575;29;20023;-73
2021/08/04 01:56:10;;;;;;;7.28;2.78;;;;;;;;;;4897787;29;20040;-73
2021/08/04 01:58:38;;;;;;;5.25;2.95;;;;;;;;;;4913162;29;20479;-74
2021/08/04 02:01:03;;;;;;;6.22;2.70;;;;;;;;;;4913410;29;20023;-73
2021/08/04 02:03:29;;;;;;;3.17;2.53;;;;;;;;;;4914295;29;20468;-73
2021/08/04 02:05:54;;;;;;;4.70;3.03;;;;;;;;;;4913041;29;20130;-73
2021/08/04 02:08:25;;;;;;;3.03;2.60;;;;;;;;;;4913930;29;20044;-74
2021/08/04 02:11:01;;;;;;;2.88;2.22;;;;;;;;;;4897475;29;20028;-73
2021/08/04 02:13:52;;;;;;;4.47;3.25;;;;;;;;;;4897568;29;20075;-74
2021/08/04 02:16:36;;;;;;;4.65;3.13;;;;;;;;;;4912984;29;20404;-72
2021/08/04 02:19:36;;;;;;;6.15;2.90;;;;;;;;;;4914516;29;20043;-74
2021/08/04 02:22:07;;;;;;;8.43;3.58;;;;;;;;;;4913097;29;20035;-74
2021/08/04 02:24:39;;;;;;;3.97;3.58;;;;;;;;;;4914171;29;20083;-74
2021/08/04 02:27:05;;;;;;;3.78;2.83;;;;;;;;;;4897128;29;20495;-74
2021/08/04 02:29:34;;;;;;;4.95;3.08;;;;;;;;;;4913197;29;20040;-74
2021/08/04 02:32:04;;;;;;;3.63;3.33;;;;;;;;;;4896995;29;20039;-74
2021/08/04 02:34:30;;;;;;;4.25;3.13;;;;;;;;;;4913908;29;20032;-74
2021/08/04 02:36:55;;;;;;;4.25;3.70;;;;;;;;;;4912890;29;20036;-73
2021/08/04 02:39:22;;;;;;;4.07;3.38;;;;;;;;;;4896722;29;20460;-74
2021/08/04 02:41:48;;;;;;;4.50;3.17;;;;;;;;;;4912704;29;20039;-74
2021/08/04 02:44:15;;;;;;;3.78;3.10;;;;;;;;;;4914353;29;20028;-73
2021/08/04 02:46:44;;;;;;;4.65;3.30;;;;;;;;;;4914211;29;20623;-73
2021/08/04 02:49:10;;;;;;;4.13;3.58;;;;;;;;;;4914076;29;20481;-74
2021/08/04 02:51:40;;;;;;;4.72;3.72;;;;;;;;;;4913915;29;20304;-72
2021/08/04 02:54:05;;;;;;;7.80;3.30;;;;;;;;;;4912507;29;20063;-72
2021/08/04 02:56:30;;;;;;;7.93;3.70;;;;;;;;;;4913501;29;20060;-73
2021/08/04 02:58:56;;;;;;;4.45;3.50;;;;;;;;;;4913767;29;20102;-72
2021/08/04 03:01:21;;;;;;;10.13;4.90;;;;;;;;;;4912188;29;20087;-72
2021/08/04 03:03:47;;;;;;;4.78;3.05;;;;;;;;;;4912647;29;20095;-73
2021/08/04 03:06:12;;;;;;;4.97;3.80;;;;;;;;;;4909152;29;20056;-76
2021/08/04 03:08:38;;;;;;;6.07;3.78;;;;;;;;;;4894854;29;20072;-77
2021/08/04 03:11:04;;;;;;;7.13;3.15;;;;;;;;;;4909226;29;20043;-76
2021/08/04 03:13:29;;;;;;;6.38;4.03;;;;;;;;;;4894919;29;20074;-76
2021/08/04 03:15:55;;;;;;;5.97;3.50;;;;;;;;;;4894634;29;20032;-77
2021/08/04 03:18:21;;;;;;;5.47;3.50;;;;;;;;;;4894556;29;20032;-77
2021/08/04 03:20:46;;;;;;;4.63;3.40;;;;;;;;;;4893466;29;20043;-77
2021/08/04 03:23:12;;;;;;;5.90;3.42;;;;;;;;;;4894541;29;20032;-77
2021/08/04 03:25:38;;;;;;;6.80;3.78;;;;;;;;;;4894496;29;20024;-77
2021/08/04 03:28:03;;;;;;;5.88;3.03;;;;;;;;;;4894744;29;20032;-76
2021/08/04 03:30:29;;;;;;;8.18;3.67;;;;;;;;;;4894436;29;20469;-73
2021/08/04 03:32:54;;;;;;;5.35;3.20;;;;;;;;;;4894440;29;20033;-73
2021/08/04 03:35:20;;;;;;;6.25;4.22;;;;;;;;;;4894149;29;20469;-74
2021/08/04 03:37:46;;;;;;;4.72;3.45;;;;;;;;;;4894533;29;20036;-74
2021/08/04 03:40:12;;;;;;;8.27;4.15;;;;;;;;;;4909243;29;20032;-74
2021/08/04 03:42:37;;;;;;;7.47;3.63;;;;;;;;;;4912611;29;20036;-73
2021/08/04 03:45:04;;;;;;;5.47;3.33;;;;;;;;;;4897016;29;20072;-73
2021/08/04 03:47:29;;;;;;;4.32;3.90;;;;;;;;;;4898110;29;20453;-73
2021/08/04 03:49:55;;;;;;;7.85;4.47;;;;;;;;;;4898383;29;20092;-73
2021/08/04 03:52:20;;;;;;;6.65;3.65;;;;;;;;;;4912460;29;20028;-73
2021/08/04 03:54:46;;;;;;;8.02;4.15;;;;;;;;;;4898126;29;20071;-73
2021/08/04 03:57:11;;;;;;;5.65;3.88;;;;;;;;;;4896749;29;20036;-74
2021/08/04 03:59:37;;;;;;;10.35;4.32;;;;;;;;;;4912268;29;20043;-74
2021/08/04 04:02:03;;;;;;;9.40;6.20;;;;;;;;;;4898004;29;20037;-74
2021/08/04 04:04:28;;;;;;;8.15;4.47;;;;;;;;;;4902311;29;20520;-74
2021/08/04 04:06:54;;;;;;;9.52;4.40;;;;;;;;;;4915368;29;20127;-74
2021/08/04 04:09:19;;;;;;;5.88;4.00;;;;;;;;;;4899647;29;20109;-73
2021/08/04 04:11:45;;;;;;;8.27;4.72;;;;;;;;;;4899582;29;20028;-74
2021/08/04 04:14:10;;;;;;;10.52;6.40;;;;;;;;;;4916840;29;20146;-74
2021/08/04 04:16:36;;;;;;;6.97;4.00;;;;;;;;;;4899270;29;20043;-72
2021/08/04 04:19:02;;;;;;;5.43;3.97;;;;;;;;;;4916683;29;20036;-74
2021/08/04 04:21:27;;;;;;;8.73;4.40;;;;;;;;;;4915089;29;20036;-73
2021/08/04 04:23:53;;;;;;;4.80;4.07;;;;;;;;;;4915410;29;20476;-75
2021/08/04 04:26:18;;;;;;;5.50;3.90;;;;;;;;;;4916867;29;20060;-75
2021/08/04 04:28:44;;;;;;;7.40;4.32;;;;;;;;;;4916352;29;20433;-74
2021/08/04 04:31:09;;;;;;;7.65;3.90;;;;;;;;;;4916518;29;20024;-73
2021/08/04 04:33:35;;;;;;;6.88;4.13;;;;;;;;;;4914695;29;20484;-74
2021/08/04 04:36:00;;;;;;;6.05;3.58;;;;;;;;;;4916357;29;20028;-74
2021/08/04 04:38:26;;;;;;;6.10;3.92;;;;;;;;;;4898940;29;20066;-73
2021/08/04 04:40:51;;;;;;;6.78;4.13;;;;;;;;;;4916243;29;20028;-73
2021/08/04 04:43:17;;;;;;;5.90;4.20;;;;;;;;;;4916137;29;20035;-73
2021/08/04 04:45:43;;;;;;;4.55;3.50;;;;;;;;;;4914476;29;20070;-73
2021/08/04 04:48:09;;;;;;;6.07;3.78;;;;;;;;;;4914960;29;20663;-73
2021/08/04 04:50:34;;;;;;;5.82;3.15;;;;;;;;;;4914391;29;20032;-74
2021/08/04 04:53:00;;;;;;;8.57;4.40;;;;;;;;;;4915553;29;20036;-74
2021/08/04 04:55:29;;;;;;;6.28;3.75;;;;;;;;;;4914507;29;20031;-75
2021/08/04 04:57:56;;;;;;;7.78;5.10;;;;;;;;;;4916178;29;20044;-76
2021/08/04 05:00:21;;;;;;;5.05;3.60;;;;;;;;;;4914551;29;20405;-74
2021/08/04 05:02:47;;;;;;;7.53;3.90;;;;;;;;;;4915642;29;20039;-74
2021/08/04 05:05:12;;;;;;;68.70;47.17;;;;;;;;;;4911152;29;20053;-75
2021/08/04 05:07:38;;;;;;;13.70;12.52;;;;;;;;;;4895253;29;20047;-74
2021/08/04 05:10:04;;;;;;;6.25;4.13;;;;;;;;;;4897010;29;20111;-75
2021/08/04 05:12:30;;;;;;;4.93;4.07;;;;;;;;;;4896524;29;20036;-73
2021/08/04 05:14:55;;;;;;;7.93;4.70;;;;;;;;;;4910789;29;20080;-74
2021/08/04 05:17:21;;;;;;;5.40;4.03;;;;;;;;;;4896704;29;20036;-74
2021/08/04 05:19:46;;;;;;;5.82;3.85;;;;;;;;;;4910886;29;20041;-74
2021/08/04 05:22:12;;;;;;;8.82;4.45;;;;;;;;;;4911048;29;20066;-74
2021/08/04 05:24:38;;;;;;;6.95;4.25;;;;;;;;;;4910770;29;20414;-73
2021/08/04 05:27:03;;;;;;;6.53;4.50;;;;;;;;;;4896447;29;20112;-74
2021/08/04 05:29:29;;;;;;;11.80;4.35;;;;;;;;;;4895988;29;20054;-73
2021/08/04 05:31:54;;;;;;;9.52;4.53;;;;;;;;;;4896366;29;20040;-75
2021/08/04 05:34:20;;;;;;;15.32;5.28;;;;;;;;;;4910603;29;20028;-74
2021/08/04 05:36:45;;;;;;;7.60;4.03;;;;;;;;;;4910430;29;20038;-74
2021/08/04 05:39:11;;;;;;;5.75;3.60;;;;;;;;;;4896210;29;20043;-74
2021/08/04 05:41:39;;;;;;;8.57;4.10;;;;;;;;;;4895896;29;20534;-74
2021/08/04 05:44:05;;;;;;;7.28;5.60;;;;;;;;;;4896456;29;20041;-74
2021/08/04 05:46:30;;;;;;;5.22;4.70;;;;;;;;;;4896024;29;20067;-74
2021/08/04 05:48:56;;;;;;;5.53;3.65;;;;;;;;;;4896150;29;20498;-74
2021/08/04 05:51:21;;;;;;;12.48;5.78;;;;;;;;;;4894579;29;20033;-74
2021/08/04 05:53:46;;;;;;;8.55;4.35;;;;;;;;;;4910176;29;20093;-73
2021/08/04 05:56:12;;;;;;;4.57;3.70;;;;;;;;;;4910120;29;20040;-74
2021/08/04 05:58:37;;;;;;;7.20;3.67;;;;;;;;;;4909814;29;20513;-73
2021/08/04 06:01:03;;;;;;;5.47;3.70;;;;;;;;;;4896182;29;20484;-74
2021/08/04 06:03:28;;;;;;;7.70;3.78;;;;;;;;;;4893507;29;20460;-74
2021/08/04 06:05:54;;;;;;;10.50;4.50;;;;;;;;;;4893691;29;20445;-74
2021/08/04 06:08:19;;;;;;;4.40;3.25;;;;;;;;;;4910117;29;20060;-73
2021/08/04 06:10:45;;;;;;;7.85;3.45;;;;;;;;;;4895045;29;20036;-73
2021/08/04 06:13:11;;;;;;;6.22;3.90;;;;;;;;;;4895095;29;20036;-74
2021/08/04 06:15:37;;;;;;;6.10;4.97;;;;;;;;;;4893644;29;20032;-74
2021/08/04 06:18:02;;;;;;;5.80;4.18;;;;;;;;;;4909598;29;20064;-73
2021/08/04 06:20:28;;;;;;;17.60;7.07;;;;;;;;;;4907432;29;20059;-75
2021/08/04 06:22:54;;;;;;;7.80;3.30;;;;;;;;;;4911780;29;20273;-73
2021/08/04 06:25:19;;;;;;;9.75;3.85;;;;;;;;;;4913005;29;20058;-73
2021/08/04 06:27:45;;;;;;;6.63;4.00;;;;;;;;;;4911382;29;20039;-75
2021/08/04 06:30:11;;;;;;;7.57;3.67;;;;;;;;;;4912931;29;20536;-74
2021/08/04 06:32:37;;;;;;;5.88;3.70;;;;;;;;;;4913206;29;20047;-74
2021/08/04 06:35:04;;;;;;;14.23;3.78;;;;;;;;;;4912214;29;20233;-74
2021/08/04 06:37:29;;;;;;;9.23;3.63;;;;;;;;;;4911241;29;20036;-74
2021/08/04 06:39:55;;;;;;;10.75;4.05;;;;;;;;;;4913060;29;20095;-75
2021/08/04 06:42:20;;;;;;;5.28;3.08;;;;;;;;;;4905423;29;20046;-74
2021/08/04 06:44:46;;;;;;;7.07;4.50;;;;;;;;;;4906199;29;20063;-74
2021/08/04 06:47:12;;;;;;;7.60;3.50;;;;;;;;;;4907201;29;20039;-74
2021/08/04 06:49:37;;;;;;;5.13;3.42;;;;;;;;;;4911785;29;20027;-74
2021/08/04 06:52:03;;;;;;;6.45;3.72;;;;;;;;;;4911329;29;20512;-73
2021/08/04 06:54:29;;;;;;;8.00;3.30;;;;;;;;;;4910717;29;20032;-75
2021/08/04 06:57:35;;;;;;;7.18;3.33;;;;;;;;;;4910518;29;20404;-74
2021/08/04 07:00:03;;;;;;;6.22;3.35;;;;;;;;;;4900160;29;20048;-73
2021/08/04 07:02:28;;;;;;;10.02;3.85;;;;;;;;;;4908366;29;20098;-74
2021/08/04 07:04:54;;;;;;;7.15;3.50;;;;;;;;;;4908761;29;20480;-72
2021/08/04 07:07:19;;;;;;;10.85;4.90;;;;;;;;;;4900648;29;20055;-74
2021/08/04 07:09:45;;;;;;;6.03;3.65;;;;;;;;;;4908747;29;20047;-74
2021/08/04 07:12:11;;;;;;;15.93;4.38;;;;;;;;;;4905041;29;20374;-75
2021/08/04 07:14:38;;;;;;;4.40;3.30;;;;;;;;;;4905933;29;20066;-75
2021/08/04 07:17:04;;;;;;;6.47;3.92;;;;;;;;;;4910554;29;20028;-74
2021/08/04 07:19:30;;;;;;;5.38;3.90;;;;;;;;;;4910492;29;20032;-74
2021/08/04 07:21:56;;;;;;;5.53;3.63;;;;;;;;;;4909243;29;20031;-74
2021/08/04 07:24:22;;;;;;;10.25;3.53;;;;;;;;;;4911276;29;20035;-74
2021/08/04 07:26:47;;;;;;;5.25;3.97;;;;;;;;;;4910952;29;20035;-75
2021/08/04 07:29:13;;;;;;;11.50;3.70;;;;;;;;;;4912961;29;20035;-74
2021/08/04 07:31:39;;;;;;;12.43;3.50;;;;;;;;;;4910575;29;20103;-74
2021/08/04 07:34:05;;;;;;;6.53;3.95;;;;;;;;;;4908582;29;20061;-74
2021/08/04 07:36:31;;;;;;;7.07;3.53;;;;;;;;;;4906940;29;20516;-74
2021/08/04 07:38:56;;;;;;;3.53;3.17;;;;;;;;;;4896548;29;20055;-74
2021/08/04 07:41:22;;;;;;;4.68;2.95;;;;;;;;;;4897246;29;20036;-75
2021/08/04 07:43:49;;;;;;;8.80;3.28;;;;;;;;;;4910948;29;20043;-74
2021/08/04 07:46:17;;;;;;;6.95;3.42;;;;;;;;;;4910291;29;20461;-74
2021/08/04 07:48:48;;;;;;;4.47;3.42;;;;;;;;;;4909687;29;20493;-74
2021/08/04 07:51:15;;;;;;;4.50;3.30;;;;;;;;;;4907583;29;20496;-75
2021/08/04 07:53:41;;;;;;;6.10;3.50;;;;;;;;;;4907971;29;20036;-73
2021/08/04 07:56:06;;;;;;;4.10;3.70;;;;;;;;;;4910889;29;20103;-73
2021/08/04 07:58:32;;;;;;;5.35;4.07;;;;;;;;;;4905233;29;20131;-74
2021/08/04 08:00:57;;;;;;;8.35;3.22;;;;;;;;;;4908918;29;20032;-74
2021/08/04 08:03:23;;;;;;;3.28;2.90;;;;;;;;;;4908713;29;20032;-74
2021/08/04 08:05:48;;;;;;;11.32;3.45;;;;;;;;;;4909134;29;20571;-74
2021/08/04 08:08:15;;;;;;;5.47;4.13;;;;;;;;;;4910156;29;20412;-75
2021/08/04 08:10:43;;;;;;;5.63;3.83;;;;;;;;;;4893354;29;20126;-74
2021/08/04 08:13:09;;;;;;;7.38;3.60;;;;;;;;;;4907743;29;20041;-74
2021/08/04 08:15:35;;;;;;;4.07;3.28;;;;;;;;;;4900473;29;20754;-73
2021/08/04 08:18:12;;;;;;;5.57;3.58;;;;;;;;;;4912760;29;20039;-74
2021/08/04 08:20:38;;;;;;;9.18;3.92;;;;;;;;;;4909199;29;20085;-73
2021/08/04 08:23:04;;;;;;;5.82;3.17;;;;;;;;;;4909687;29;20278;-74
2021/08/04 08:25:31;;;;;;;7.85;3.92;;;;;;;;;;4909144;29;20114;-74
2021/08/04 08:27:59;;;;;;;5.95;3.92;;;;;;;;;;4911486;29;20419;-75
2021/08/04 08:30:25;;;;;;;3.30;2.92;;;;;;;;;;4909944;29;20380;-75
2021/08/04 08:32:50;;;;;;;4.93;3.10;;;;;;;;;;4910429;29;20036;-74
2021/08/04 08:35:17;;;;;;;10.77;3.50;;;;;;;;;;4910942;29;20137;-74
2021/08/04 08:37:44;;;;;;;5.85;3.10;;;;;;;;;;4897658;29;20040;-74
2021/08/04 08:40:11;;;;;;;5.45;3.40;;;;;;;;;;4917070;29;20047;-74
2021/08/04 08:42:41;;;;;;;9.85;4.00;;;;;;;;;;4911027;29;20076;-75
2021/08/04 08:45:08;;;;;;;12.53;3.53;;;;;;;;;;4912534;29;20020;-74
2021/08/04 08:47:34;;;;;;;7.95;3.15;;;;;;;;;;4911673;29;20446;-73
2021/08/04 08:50:01;;;;;;;7.57;3.58;;;;;;;;;;4911391;29;20039;-74
2021/08/04 08:52:27;;;;;;;6.20;2.90;;;;;;;;;;4907404;29;20036;-74
2021/08/04 08:54:53;;;;;;;4.78;3.17;;;;;;;;;;4910628;29;20046;-74
2021/08/04 08:57:20;;;;;;;3.92;2.88;;;;;;;;;;4913043;29;20346;-73
2021/08/04 08:59:45;;;;;;;8.52;3.05;;;;;;;;;;4911792;29;20147;-73
2021/08/04 09:02:11;;;;;;;3.50;3.10;;;;;;;;;;4909169;29;20133;-74
2021/08/04 09:04:36;;;;;;;3.65;3.30;;;;;;;;;;4918494;29;20035;-73
2021/08/04 09:07:03;;;;;;;3.90;3.10;;;;;;;;;;4931903;29;20042;-74
2021/08/04 09:09:31;;;;;;;6.72;3.53;;;;;;;;;;4927176;29;20554;-74
2021/08/04 09:12:13;;;;;;;5.25;3.25;;;;;;;;;;4913677;29;20031;-73
2021/08/04 09:14:40;;;;;;;9.65;3.63;;;;;;;;;;4917171;29;20083;-73
2021/08/04 09:17:08;;;;;;;3.50;2.80;;;;;;;;;;4914619;29;20038;-74
2021/08/04 09:19:37;;;;;;;4.18;2.90;;;;;;;;;;4914502;29;20020;-74
2021/08/04 09:22:26;;;;;;;5.88;2.88;;;;;;;;;;4931026;29;20016;-74
2021/08/04 09:25:03;;;;;;;6.93;3.30;;;;;;;;;;4892855;29;20036;-74
2021/08/04 09:27:43;;;;;;;4.03;3.22;;;;;;;;;;4928806;29;20130;-74
2021/08/04 09:30:13;;;;;;;2.90;2.60;;;;;;;;;;4927387;29;20114;-74
2021/08/04 09:32:38;;;;;;;5.20;2.90;;;;;;;;;;4928826;29;20043;-74
2021/08/04 09:35:13;;;;;;;3.20;2.70;;;;;;;;;;4931822;29;20046;-74
2021/08/04 09:37:39;;;;;;;4.90;2.90;;;;;;;;;;4915036;29;20036;-74
2021/08/04 09:40:06;;;;;;;5.38;3.17;;;;;;;;;;4915230;29;20067;-75
2021/08/04 09:42:53;;;;;;;6.22;4.03;;;;;;;;;;4913859;29;20127;-74
2021/08/04 09:45:37;;;;;;;3.25;2.65;;;;;;;;;;4914997;29;20130;-76
2021/08/04 09:48:08;;;;;;;3.53;2.40;;;;;;;;;;4913792;29;20396;-74
2021/08/04 09:50:44;;;;;;;7.10;2.60;;;;;;;;;;4912485;29;20525;-73
2021/08/04 09:53:09;;;;;;;2.95;2.60;;;;;;;;;;4908565;29;20148;-74
2021/08/04 09:55:35;;;;;;;2.33;2.13;;;;;;;;;;4910936;29;20344;-74
2021/08/04 09:58:02;;;;;;;2.33;2.08;;;;;;;;;;4931268;29;20487;-74
2021/08/04 10:00:28;;;;;;;4.10;2.10;;;;;;;;;;4927044;29;20444;-75
2021/08/04 10:03:10;;;;;;;2.15;1.92;;;;;;;;;;4921051;29;20091;-74
2021/08/04 10:05:43;;;;;;;2.95;2.55;;;;;;;;;;4909760;29;20127;-75
2021/08/04 10:08:12;;;;;;;9.63;3.17;;;;;;;;;;4908890;29;20035;-75
2021/08/04 10:10:37;;;;;;;9.23;3.42;;;;;;;;;;4897042;29;20028;-75
2021/08/04 10:13:06;;;;;;;3.90;2.42;;;;;;;;;;4910238;29;20024;-74
2021/08/04 10:15:41;;;;;;;4.07;2.25;;;;;;;;;;4900652;29;20036;-74
2021/08/04 10:23:32;;;;;;;3.15;2.13;;;;;;;;;;5683706;23;20081;-76
2021/08/04 10:25:59;;;;;;;3.17;2.33;;;;;;;;;;4965468;28;20026;-76
2021/08/04 10:28:26;;;;;;;4.32;2.58;;;;;;;;;;4969061;28;20030;-78
2021/08/04 10:30:52;;;;;;;5.50;2.70;;;;;;;;;;4966235;28;20019;-77
2021/08/04 10:33:18;;;;;;;2.38;2.17;;;;;;;;;;4969082;28;20042;-77
2021/08/04 10:35:51;;;;;;;23.30;3.92;;;;;;;;;;4968920;28;20481;-78
2021/08/04 10:38:23;;;;;;;4.55;2.30;;;;;;;;;;4951475;28;20450;-77
2021/08/04 10:41:19;;;;;;;3.40;1.73;;;;;;;;;;4967190;28;20109;-75
2021/08/04 10:43:56;;;;;;;1.80;1.65;;;;;;;;;;4953899;28;20045;-77
2021/08/04 10:46:28;;;;;;;2.03;1.70;;;;;;;;;;4969407;28;20134;-77
2021/08/04 10:49:03;;;;;;;7.07;3.28;;;;;;;;;;4946696;28;20071;-77
2021/08/04 10:51:30;;;;;;;2.80;2.35;;;;;;;;;;4940349;28;20027;-76
2021/08/04 10:54:02;;;;;;;4.95;1.88;;;;;;;;;;4967213;28;20031;-78
2021/08/04 10:56:37;;;;;;;2.33;2.13;;;;;;;;;;4968506;28;20449;-77
2021/08/04 10:59:32;;;;;;;4.30;2.40;;;;;;;;;;4950865;28;20033;-78
2021/08/04 11:02:03;;;;;;;3.70;1.95;;;;;;;;;;4944810;28;20042;-77
2021/08/04 11:04:29;;;;;;;5.85;2.58;;;;;;;;;;4964630;28;20027;-78
2021/08/04 11:07:13;;;;;;;4.72;2.40;;;;;;;;;;4943079;28;20043;-78
2021/08/04 11:09:51;;;;;;;3.08;2.05;;;;;;;;;;4969194;28;20030;-77
2021/08/04 11:12:18;;;;;;;3.97;2.35;;;;;;;;;;4951940;28;20242;-77
2021/08/04 11:14:58;;;;;;;3.58;2.65;;;;;;;;;;4951567;28;20037;-78
2021/08/04 11:17:31;;;;;;;4.85;2.50;;;;;;;;;;4950898;28;20037;-77
2021/08/04 11:20:01;;;;;;;5.63;2.03;;;;;;;;;;4968828;28;20047;-78
2021/08/04 11:22:49;;;;;;;4.45;2.70;;;;;;;;;;4948625;28;20517;-80
2021/08/04 11:25:31;;;;;;;3.55;2.40;;;;;;;;;;4924513;29;20411;-78
2021/08/04 11:27:57;;;;;;;5.05;2.25;;;;;;;;;;4936621;29;20059;-76
2021/08/04 11:30:40;;;;;;;6.75;2.53;;;;;;;;;;4931734;29;20139;-76
2021/08/04 11:33:20;;;;;;;4.82;2.50;;;;;;;;;;4919567;29;20063;-75
2021/08/04 11:36:01;;;;;;;7.55;2.47;;;;;;;;;;4911573;29;20452;-77
2021/08/04 11:38:40;;;;;;;5.35;2.78;;;;;;;;;;4918877;29;20049;-77
2021/08/04 11:41:16;;;;;;;8.82;3.05;;;;;;;;;;4928798;28;20199;-76
2021/08/04 11:43:41;;;;;;;3.95;2.70;;;;;;;;;;4920681;29;20043;-78
2021/08/04 11:46:09;;;;;;;4.20;2.78;;;;;;;;;;4928115;29;20024;-77
2021/08/04 11:49:07;;;;;;;8.20;3.00;;;;;;;;;;4924361;29;20051;-76
2021/08/04 11:51:42;;;;;;;4.78;2.60;;;;;;;;;;4920121;29;20074;-76
2021/08/04 11:54:09;;;;;;;4.68;2.78;;;;;;;;;;4913858;29;20043;-78
2021/08/04 11:56:42;;;;;;;3.25;2.55;;;;;;;;;;4906794;29;20051;-77
2021/08/04 11:59:09;;;;;;;3.13;2.53;;;;;;;;;;4917451;29;20024;-76
2021/08/04 12:01:35;;;;;;;2.80;2.30;;;;;;;;;;4922771;29;20808;-77
2021/08/04 12:04:06;;;;;;;2.42;2.20;;;;;;;;;;4927025;29;20040;-75
2021/08/04 12:06:36;;;;;;;;;;;;;;;;;;4925421;29;20023;-78
2021/08/04 12:09:25;;;;;;;7.65;2.90;;;;;;;;;;4929467;29;19922;-75
2021/08/04 12:11:52;;;;;;;3.50;2.28;;;;;;;;;;4921954;29;20091;-78
2021/08/04 12:14:20;;;;;;;4.68;2.60;;;;;;;;;;4909014;29;20036;-75
2021/08/04 12:16:52;;;;;;;5.10;2.15;;;;;;;;;;4921777;29;20038;-75
2021/08/04 12:19:27;;;;;;;2.95;2.28;;;;;;;;;;4926499;29;20028;-76
2021/08/04 12:21:53;;;;;;;2.58;1.92;;;;;;;;;;4922426;29;20052;-74
2021/08/04 12:24:18;;;;;;;2.17;1.77;;;;;;;;;;4923416;29;20609;-75
2021/08/04 12:26:48;;;;;;;1.70;1.45;;;;;;;;;;4924924;29;20123;-75
2021/08/04 12:29:15;;;;;;;4.30;1.55;;;;;;;;;;4922913;29;20020;-77
2021/08/04 12:31:41;;;;;;;1.80;1.30;;;;;;;;;;4917985;29;20066;-78
2021/08/04 12:34:08;;;;;;;1.67;1.33;;;;;;;;;;4924271;29;20031;-77
2021/08/04 12:36:46;;;;;;;1.38;1.27;;;;;;;;;;4926930;29;20060;-77
2021/08/04 12:39:11;;;;;;;26.05;3.45;;;;;;;;;;4930198;29;20260;-77
2021/08/04 12:41:37;;;;;;;2.20;1.65;;;;;;;;;;4932208;29;20046;-76
2021/08/04 12:44:06;;;;;;;4.20;1.88;;;;;;;;;;4931619;29;20119;-76
2021/08/04 12:46:33;;;;;;;2.67;1.40;;;;;;;;;;4922105;29;20042;-75
2021/08/04 12:49:00;;;;;;;1.70;1.42;;;;;;;;;;4936739;29;20032;-77
2021/08/04 12:51:26;;;;;;;2.03;1.80;;;;;;;;;;4921678;29;20578;-78
2021/08/04 12:54:00;;;;;;;3.50;2.05;;;;;;;;;;4924664;29;20067;-76
2021/08/04 12:56:31;;;;;;;8.93;2.13;;;;;;;;;;4920756;29;20759;-77
2021/08/04 12:58:57;;;;;;;;;;;;;;;;;;4924425;29;20043;-77
2021/08/04 13:01:25;;;;;;;2.00;1.80;;;;;;;;;;4922441;29;20050;-75
2021/08/04 13:03:51;;;;;;;4.20;1.85;;;;;;;;;;4921900;29;20024;-76
2021/08/04 13:06:56;;;;;;;3.75;1.52;;;;;;;;;;4924420;29;20031;-76
2021/08/04 13:09:29;;;;;;;2.38;1.60;;;;;;;;;;4915739;29;20707;-77
2021/08/04 13:12:22;;;;;;;8.65;1.90;;;;;;;;;;4912988;29;20070;-75
2021/08/04 13:14:57;;;;;;;2.25;1.80;;;;;;;;;;4916908;29;20032;-76
2021/08/04 13:17:25;;;;;;;3.85;1.42;;;;;;;;;;4923137;29;20480;-78
2021/08/04 13:20:04;;;;;;;3.08;1.77;;;;;;;;;;4921005;29;20032;-77
2021/08/04 13:23:05;;;;;;;1.73;1.58;;;;;;;;;;4930553;29;20472;-76
2021/08/04 13:25:32;;;;;;;6.18;1.80;;;;;;;;;;4943527;28;20382;-76
2021/08/04 13:27:59;;;;;;;1.55;1.27;;;;;;;;;;4938440;28;20046;-77
2021/08/04 13:30:28;;;;;;;3.83;1.77;;;;;;;;;;4934038;29;20071;-76
2021/08/04 13:32:54;;;;;;;1.63;1.45;;;;;;;;;;4944716;28;20035;-77
2021/08/04 13:35:20;;;;;;;3.35;3.05;;;;;;;;;;4918818;29;20035;-76
2021/08/04 13:37:46;;;;;;;2.75;1.50;;;;;;;;;;4940903;28;20105;-75
2021/08/04 13:40:15;;;;;;;3.25;1.65;;;;;;;;;;4946882;28;20676;-77
2021/08/04 13:42:43;;;;;;;3.13;2.20;;;;;;;;;;4926595;28;20427;-77
2021/08/04 13:45:12;;;;;;;4.75;2.40;;;;;;;;;;4945360;28;20015;-76
2021/08/04 13:47:39;;;;;;;6.25;1.85;;;;;;;;;;4941134;28;20034;-78
2021/08/04 13:50:06;;;;;;;3.28;1.83;;;;;;;;;;4945687;28;20027;-76
2021/08/04 13:52:32;;;;;;;1.58;1.45;;;;;;;;;;4924909;28;20065;-77
2021/08/04 13:55:04;;;;;;;2.97;1.33;;;;;;;;;;4929803;29;20026;-77
2021/08/04 13:57:30;;;;;;;2.03;1.70;;;;;;;;;;4920400;28;20034;-77
2021/08/04 13:59:55;;;;;;;3.85;1.40;;;;;;;;;;4932935;29;20461;-76
2021/08/04 14:02:21;;;;;;;3.80;2.10;;;;;;;;;;4928907;29;20031;-76
2021/08/04 14:04:47;;;;;;;5.03;1.35;;;;;;;;;;4916078;29;20027;-77
2021/08/04 14:07:14;;;;;;;3.33;1.67;;;;;;;;;;4941225;29;20038;-75
2021/08/04 14:09:39;;;;;;;3.25;1.88;;;;;;;;;;4934580;29;20169;-76
2021/08/04 14:12:06;;;;;;;4.50;1.75;;;;;;;;;;4950346;28;20032;-78
2021/08/04 14:14:31;;;;;;;3.08;1.85;;;;;;;;;;4929342;29;20145;-78
2021/08/04 14:16:57;;;;;;;6.40;2.40;;;;;;;;;;4938038;28;20031;-77
2021/08/04 14:19:22;;;;;;;1.75;1.45;;;;;;;;;;4940583;28;20043;-77
2021/08/04 14:21:48;;;;;;;1.58;1.25;;;;;;;;;;4944816;28;20125;-77
2021/08/04 14:24:14;;;;;;;52.17;6.10;;;;;;;;;;4941949;28;20887;-76
2021/08/04 14:26:39;;;;;;;6.70;2.20;;;;;;;;;;4945412;28;20027;-78
2021/08/04 14:29:05;;;;;;;10.48;2.42;;;;;;;;;;4943235;28;20142;-78
2021/08/04 14:31:30;;;;;;;3.30;1.70;;;;;;;;;;4945789;29;20478;-78
2021/08/04 14:34:00;;;;;;;2.50;1.80;;;;;;;;;;4947128;28;20046;-76
2021/08/04 14:36:26;;;;;;;5.88;1.75;;;;;;;;;;4925966;29;20701;-78
2021/08/04 14:38:51;;;;;;;4.60;2.40;;;;;;;;;;4941550;29;20027;-75
2021/08/04 14:41:17;;;;;;;4.07;2.28;;;;;;;;;;4936665;29;20505;-76
2021/08/04 14:43:43;;;;;;;5.82;2.10;;;;;;;;;;4939793;29;20028;-77
2021/08/04 14:46:08;;;;;;;6.45;3.00;;;;;;;;;;4930095;29;20031;-77
2021/08/04 14:48:34;;;;;;;6.63;2.20;;;;;;;;;;4942632;29;20668;-77
2021/08/04 14:51:00;;;;;;;3.78;2.30;;;;;;;;;;4942159;29;20471;-77
2021/08/04 14:53:26;;;;;;;3.95;3.30;;;;;;;;;;4928825;29;20369;-79
2021/08/04 14:55:53;;;;;;;2.25;1.90;;;;;;;;;;4940470;29;20027;-78
2021/08/04 14:58:22;;;;;;;5.72;2.78;;;;;;;;;;4931663;29;20038;-77